Perth Jandakot Airport

YPJT · Australie-Occidentale, Australie

METAR anciennes YPJT · Perth Jandakot Airport

Tu vois ci-dessous les METAR des derniers jours. Sélectionne une année pour parcourir les METAR plus anciens, à partir de l'année 2007.

19 juillet 2024

Temps Code Temps Temp. Vue Base cloud Vent METAR/SPECI
16:30
V
15 °C 10 km+ 4.100 ft 290° 290° 4 kt METAR YPJT 190830Z AUTO 29004KT 9999 -SHRA FEW036 BKN041 BKN047 15/11 Q1023
16:00
V
15 °C 10 km+ 6.600 ft 260° 260° 5 kt METAR YPJT 190800Z AUTO 26005KT 9999 // FEW046 BKN066 15/10 Q1023
15:30
V
14 °C 10 km+ 5.300 ft 220° 220° 12 kt METAR YPJT 190730Z AUTO 22012KT 9999 // SCT044 BKN053 OVC064 14/11 Q1023
15:08
V
14 °C 10 km+ 5.300 ft 250° 250° 21 kt METAR YPJT 190708Z AUTO 25021KT 9999 -RA SCT047 BKN053 14/09 Q1023
15:00
V
17 °C 10 km+ - 260° 260° 9 kt METAR YPJT 190700Z AUTO 26009KT 9999 // SCT047 SCT053 17/07 Q1022
14:30
V
16 °C 10 km+ 6.000 ft 260° 260° 7 kt METAR YPJT 190630Z AUTO 26007KT 9999 // BKN060 OVC071 16/07 Q1022
14:00
V
15 °C 10 km+ 5.600 ft 240° 240° 13 kt METAR YPJT 190600Z AUTO 24013KT 9999 -SHRA FEW047 BKN056 OVC069 15/09 Q1023
13:30
V
17 °C 10 km+ 7.400 ft 250° 250° 11 kt METAR YPJT 190530Z AUTO 25011KT 9999 // OVC074 17/05 Q1022 RF00.0/000.0
13:00
V
17 °C 10 km+ - 240° 240° 14 kt METAR YPJT 190500Z AUTO 24014KT 9999 // FEW049 17/05 Q1022 RF00.0/000.0
12:30
V
17 °C 10 km+ - 260° 260° 9 kt METAR YPJT 190430Z AUTO 26009KT 9999 // SCT045 SCT051 17/07 Q1023
12:00
V
16 °C 10 km+ - 250° 250° 7 kt METAR YPJT 190400Z AUTO 25007KT 9999 // SCT053 SCT066 16/09 Q1023
11:30
V
16 °C 10 km+ 7.000 ft 280° 280° 10 kt METAR YPJT 190330Z AUTO 28010KT 240V020 9999 // FEW040 SCT058 BKN070 16/07 Q1024
11:00
V
16 °C 10 km+ 7.400 ft 010° 010° 2 kt METAR YPJT 190300Z AUTO 01002KT 9999 // SCT066 BKN074 16/08 Q1024
10:30
V
15 °C 10 km+ 4.500 ft 130° 130° 4 kt METAR YPJT 190230Z AUTO 13004KT 9999 // BKN045 BKN054 OVC069 15/07 Q1024
10:00
V
15 °C 10 km+ - 030° 030° 2 kt METAR YPJT 190200Z AUTO 03002KT 9999 // FEW054 SCT073 15/07 Q1024
09:30
V
14 °C 10 km+ - 090° 090° 4 kt METAR YPJT 190130Z AUTO 09004KT 9999 // FEW049 14/07 Q1023 RF00.0/000.0
09:00
V
12 °C 10 km+ - 120° 120° 3 kt METAR YPJT 190100Z AUTO 12003KT 9999 // FEW071 12/08 Q1023 RF00.0/010.0
08:30
V
9 °C 10 km+ - 120° 120° 1 kt METAR YPJT 190030Z AUTO 12001KT 9999 -SHRA FEW045 SCT056 09/07 Q1022
08:00
V
8 °C 10 km+ 6.600 ft 040° 040° 1 kt METAR YPJT 190000Z AUTO 04001KT 9999 // SCT055 BKN066 08/07 Q1022
07:30
V
7 °C 10 km+ 5.600 ft 040° 040° 5 kt METAR YPJT 182330Z AUTO 04005KT 9999 // BKN056 07/05 Q1021 RF00.0/010.0
07:00
V
8 °C 10 km+ 5.500 ft 100° 100° 4 kt METAR YPJT 182300Z AUTO 10004KT 070V130 9999 // FEW046 BKN055 08/06 Q1021
06:30
V
7 °C 10 km+ 4.700 ft 150° 150° 1 kt METAR YPJT 182230Z AUTO 15001KT 9999 // BKN047 BKN054 BKN068 07/06 Q1020
06:00
V
8 °C 10 km+ 4.600 ft 360° 360° 0 kt METAR YPJT 182200Z AUTO 00000KT 9999 // BKN046 08/06 Q1020 RF00.0/010.0
05:30
V
8 °C 10 km+ - 090° 090° 2 kt METAR YPJT 182130Z AUTO 09002KT 9999 // SCT062 08/06 Q1020 RF00.0/010.0
05:00
V
10 °C 10 km+ - 170° 170° 7 kt METAR YPJT 182100Z AUTO 17007KT 9999 // FEW050 10/06 Q1020 RF00.0/010.0
04:30
V
12 °C 10 km+ - 200° 200° 8 kt METAR YPJT 182030Z AUTO 20008KT 9999 // FEW045 12/05 Q1019 RF00.0/010.0
04:00
V
12 °C 10 km+ 7.600 ft 200° 200° 13 kt METAR YPJT 182000Z AUTO 20013KT 9999 // SCT058 SCT067 BKN076 12/05 Q1019
03:30
V
13 °C 10 km+ 5.400 ft 210° 210° 15 - 27 kt METAR YPJT 181930Z AUTO 21015G27KT 9999 -DZ FEW040 BKN054 OVC070 13/05 Q1019
03:00
V
13 °C 10 km+ 7.200 ft 220° 220° 17 kt METAR YPJT 181900Z AUTO 22017KT 9999 // SCT056 OVC072 13/03 Q1019
02:30
V
13 °C 10 km+ 5.400 ft 210° 210° 17 kt METAR YPJT 181830Z AUTO 21017KT 9999 // FEW046 BKN054 BKN067 13/03 Q1018
02:00
V
12 °C 10 km+ 5.200 ft 220° 220° 20 - 31 kt METAR YPJT 181800Z AUTO 22020G31KT 9999 -SHRA FEW036 BKN052 BKN060 12/07 Q1018
01:31
V
12 °C 10 km+ 5.300 ft 220° 220° 22 - 32 kt METAR YPJT 181731Z AUTO 22022G32KT 9999 -SHRA BKN053 BKN067 12/05 Q1018
01:00
V
13 °C 10 km+ 5.600 ft 220° 220° 20 - 31 kt METAR YPJT 181700Z AUTO 22020G31KT 9999 // SCT049 BKN056 OVC069 13/05 Q1017
00:30
V
13 °C 10 km+ 5.700 ft 210° 210° 19 - 30 kt METAR YPJT 181630Z AUTO 21019G30KT 9999 // FEW043 BKN057 BKN070 13/05 Q1017
00:11
V
13 °C 10 km+ 7.400 ft 220° 220° 16 - 27 kt METAR YPJT 181611Z AUTO 22016G27KT 9999 // FEW040 SCT052 BKN074 13/06 Q1016
00:00
V
13 °C 10 km+ 7.400 ft 220° 220° 18 kt METAR YPJT 181600Z AUTO 22018KT 9999 // SCT048 SCT053 BKN074 13/05 Q1016

18 juillet 2024

Temps Code Temps Temp. Vue Base cloud Vent METAR/SPECI
23:42
V
14 °C 10 km+ 4.800 ft 230° 230° 21 - 37 kt METAR YPJT 181542Z AUTO 23021G37KT 9999 // FEW031 BKN048 BKN054 14/04 Q1016
23:34
V
13 °C 10 km+ 4.600 ft 230° 230° 17 - 27 kt METAR YPJT 181534Z AUTO 23017G27KT 9999 -SHRA FEW033 BKN046 BKN054 13/06 Q1016
23:18
V
11 °C 8 km 4.400 ft 240° 240° 27 - 37 kt METAR YPJT 181518Z AUTO 24027G37KT 8000 SHRA FEW033 BKN044 BKN055 11/07 Q1016
23:00
V
13 °C 10 km+ 4.900 ft 230° 230° 16 - 27 kt METAR YPJT 181500Z AUTO 23016G27KT 9999 -SHRA SCT038 BKN049 BKN059 13/07 Q1016
22:38
V
12 °C 10 km+ 6.200 ft 230° 230° 25 - 36 kt METAR YPJT 181438Z AUTO 23025G36KT 9999 -SHRA SCT043 BKN062 BKN077 12/07 Q1016
22:33
V
13 °C 10 km+ 7.900 ft 250° 250° 19 - 31 kt METAR YPJT 181433Z AUTO 25019G31KT 9999 // SCT041 SCT049 BKN079 13/07 Q1016
22:12
V
13 °C 10 km+ 5.900 ft 250° 250° 15 - 28 kt METAR YPJT 181412Z AUTO 25015G28KT 9999 // FEW039 SCT047 BKN059 13/08 Q1015
22:00
V
12 °C 10 km+ - 240° 240° 16 kt METAR YPJT 181400Z AUTO 24016KT 9999 // FEW036 SCT057 12/08 Q1015 RESHRA
21:57
V
11 °C 10 km+ - 240° 240° 17 - 27 kt METAR YPJT 181357Z AUTO 24017G27KT 9999 // FEW036 SCT057 11/08 Q1015 RESHRA
21:41
M
11 °C 5 km 4.800 ft 250° 250° 23 - 38 kt METAR YPJT 181341Z AUTO 25023G38KT 5000 SHRA FEW033 BKN048 BKN086 11/09 Q1015
21:37
V
13 °C 10 km+ 8.600 ft 250° 250° 19 - 32 kt METAR YPJT 181337Z AUTO 25019G32KT 9999 SHRA FEW033 SCT048 BKN086 13/08 Q1015
21:16
M
12 °C 7 km 4.800 ft 240° 240° 19 kt METAR YPJT 181316Z AUTO 24019KT 7000 -SHRA FEW033 BKN048 OVC080 12/09 Q1014 RESHRA
21:07
V
13 °C 10 km+ 4.900 ft 250° 250° 31 - 44 kt METAR YPJT 181307Z AUTO 25031G44KT 9999 -SHRA FEW036 BKN049 BKN070 13/08 Q1014 RESHRA
21:03
V
14 °C 10 km+ 5.400 ft 270° 270° 15 - 28 kt METAR YPJT 181303Z AUTO 27015G28KT 9999 -SHRA FEW041 BKN054 BKN077 14/08 Q1014 RESHRA
20:42
V
13 °C 10 km+ 7.500 ft 270° 270° 17 kt METAR YPJT 181242Z AUTO 27017KT 9999 SHRA FEW032 SCT047 BKN075 13/07 Q1014
20:35
V
12 °C 8 km 5.800 ft 280° 280° 19 - 29 kt METAR YPJT 181235Z AUTO 28019G29KT 8000 +SHRA FEW031 SCT042 BKN058 12/07 Q1014
20:30
I
12 °C 4,5 km 4.200 ft 270° 270° 23 kt METAR YPJT 181230Z AUTO 27023KT 4500 +SHRA SCT032 BKN042 BKN057 12/07 Q1014
20:27
M
12 °C 5 km 4.400 ft 270° 270° 22 kt METAR YPJT 181227Z AUTO 27022KT 5000 +SHRA SCT032 BKN044 BKN069 12/08 Q1014
20:00
V
14 °C 10 km+ 11.500 ft 270° 270° 22 - 32 kt METAR YPJT 181200Z AUTO 27022G32KT 9999 // SCT045 SCT100 BKN115 14/06 Q1013
19:37
V
15 °C 10 km+ 4.500 ft 270° 270° 17 - 28 kt METAR YPJT 181137Z AUTO 27017G28KT 9999 // BKN045 15/07 Q1013 RF00.0/007.2
19:02
V
14 °C 10 km+ 6.500 ft 270° 270° 15 - 26 kt METAR YPJT 181102Z AUTO 27015G26KT 9999 // FEW041 SCT050 BKN065 14/07 Q1013
18:30
V
13 °C 10 km+ 5.300 ft 240° 240° 13 kt METAR YPJT 181030Z AUTO 24013KT 230V290 9999 -SHRA SCT039 BKN053 BKN071 13/08 Q1013 RESHRA
18:00
V
12 °C 10 km+ 4.500 ft 290° 290° 12 kt METAR YPJT 181000Z AUTO 29012KT 9999 -SHRA FEW021 BKN045 BKN064 12/09 Q1013 RESHRA
17:30
V
13 °C 10 km+ 6.700 ft 290° 290° 13 kt METAR YPJT 180930Z AUTO 29013KT 9999 -SHRA SCT048 BKN067 BKN083 13/07 Q1013
17:00
V
13 °C 10 km+ 6.700 ft 300° 300° 13 kt METAR YPJT 180900Z AUTO 30013KT 9999 -SHRA SCT048 BKN067 BKN084 13/09 Q1013
16:41
V
14 °C 10 km+ 11.000 ft 260° 260° 18 - 28 kt METAR YPJT 180841Z AUTO 26018G28KT 9999 -RA FEW024 SCT049 BKN110 14/06 Q1013
16:30
V
16 °C 10 km+ 9.700 ft 270° 270° 22 kt METAR YPJT 180830Z AUTO 27022KT 9999 // FEW049 SCT064 BKN097 16/05 Q1012
16:00
V
16 °C 10 km+ 5.700 ft 270° 270° 15 - 26 kt METAR YPJT 180800Z AUTO 27015G26KT 9999 // SCT050 BKN057 BKN074 16/07 Q1012
15:59
V
16 °C 10 km+ 5.900 ft 270° 270° 15 - 26 kt METAR YPJT 180759Z AUTO 27015G26KT 9999 // SCT050 BKN059 BKN068 16/07 Q1012
15:30
V
16 °C 10 km+ 5.200 ft 270° 270° 14 kt METAR YPJT 180730Z AUTO 27014KT 9999 // FEW039 SCT046 BKN052 16/07 Q1012
15:00
V
14 °C 10 km+ 4.700 ft 290° 290° 9 kt METAR YPJT 180700Z AUTO 29009KT 9999 -SHRA SCT037 BKN047 BKN058 14/10 Q1012
14:37
V
14 °C 10 km+ 6.700 ft 250° 250° 15 kt METAR YPJT 180637Z AUTO 25015KT 9999 -SHRA FEW045 SCT058 BKN067 14/10 Q1012 RETS
14:30
V
15 °C 10 km+ 6.500 ft 240° 240° 17 kt METAR YPJT 180630Z AUTO 24017KT 9999 -TSRA FEW042 BKN065 OVC076 15/10 Q1012
14:27
V
15 °C 10 km+ 6.900 ft 240° 240° 17 kt METAR YPJT 180627Z AUTO 24017KT 9999 -TSRA FEW042 SCT056 OVC069 15/09 Q1012
14:21
V
15 °C 10 km+ 6.700 ft 240° 240° 20 kt METAR YPJT 180621Z AUTO 24020KT 9999 // FEW042 SCT058 BKN067 15/08 Q1012
14:00
V
15 °C 10 km+ 5.400 ft 250° 250° 8 kt METAR YPJT 180600Z AUTO 25008KT 9999 -SHRA FEW037 BKN054 BKN063 15/11 Q1012
13:30
V
15 °C 10 km+ 5.800 ft 240° 240° 9 kt METAR YPJT 180530Z AUTO 24009KT 9999 // BKN058 BKN084 15/11 Q1012
13:00
M
15 °C 10 km+ 2.200 ft 250° 250° 8 kt METAR YPJT 180500Z AUTO 25008KT 9999 -SHRA FEW010 BKN022 BKN034 15/13 Q1012 RESHRA
12:30
V
14 °C 10 km+ 3.900 ft 250° 250° 1 kt METAR YPJT 180430Z AUTO 25001KT 9999 -SHRA FEW008 BKN039 BKN051 14/12 Q1012
12:15
V
14 °C 10 km+ 3.100 ft 250° 250° 1 kt METAR YPJT 180415Z AUTO 25001KT 9999 SHRA SCT008 BKN031 OVC044 14/12 Q1013
12:00
I
14 °C 10 km+ 600 ft 320° 320° 2 kt METAR YPJT 180400Z AUTO 32002KT 9999 -SHRA BKN006 BKN030 BKN044 14/12 Q1013 RESHRA
11:56
M
13 °C 10 km+ 1.100 ft 300° 300° 2 kt METAR YPJT 180356Z AUTO 30002KT 9999 -SHRA SCT006 BKN011 BKN039 13/12 Q1013 RESHRA
11:32
M
13 °C 7 km 1.400 ft 260° 260° 6 kt METAR YPJT 180332Z AUTO 26006KT 180V300 7000 SHRA FEW005 BKN014 BKN027 13/12 Q1013
11:21
M
13 °C 7 km 3.100 ft 330° 330° 5 kt METAR YPJT 180321Z AUTO 33005KT 7000 SHRA SCT010 SCT023 BKN031 13/12 Q1013
11:07
M
13 °C 5 km 4.000 ft 330° 330° 5 kt METAR YPJT 180307Z AUTO 33005KT 5000 +SHRA FEW032 BKN040 BKN053 13/11 Q1013
11:00
V
13 °C 10 km+ 5.200 ft 360° 360° 5 kt METAR YPJT 180300Z AUTO 36005KT 330V050 9999 SHRA SCT042 BKN052 BKN067 13/11 Q1013
10:30
V
13 °C 10 km+ 5.900 ft 020° 020° 4 kt METAR YPJT 180230Z AUTO 02004KT 9999 -SHRA BKN059 OVC071 13/11 Q1013 RESHRA
10:00
M
13 °C 7 km 4.700 ft 170° 170° 3 kt METAR YPJT 180200Z AUTO 17003KT 7000 SHRA SCT032 BKN047 BKN064 13/11 Q1014
09:30
V
13 °C 10 km+ 7.600 ft 360° 360° 0 kt METAR YPJT 180130Z AUTO 00000KT 9999 -SHRA FEW047 OVC076 13/11 Q1013 RESHRA
09:00
V
12 °C 10 km+ 3.200 ft 190° 190° 4 kt METAR YPJT 180100Z AUTO 19004KT 120V230 9999 // SCT027 BKN032 12/11 Q1013
08:30
V
12 °C 10 km+ 5.500 ft 140° 140° 5 kt METAR YPJT 180030Z AUTO 14005KT 9999 RA SCT021 SCT032 BKN055 12/11 Q1012
08:00
M
12 °C 7 km 3.600 ft 190° 190° 6 kt METAR YPJT 180000Z AUTO 19006KT 7000 SHRA FEW022 SCT029 BKN036 12/11 Q1012
07:30
V
12 °C 10 km+ 4.100 ft 200° 200° 6 kt METAR YPJT 172330Z AUTO 20006KT 9999 SHRA FEW027 BKN041 BKN046 12/12 Q1012
07:00
V
11 °C 10 km+ - 130° 130° 3 kt METAR YPJT 172300Z AUTO 13003KT 9999 -RA SCT041 11/11 Q1011 RF00.0/029.8
06:30
V
12 °C 10 km+ 8.500 ft 120° 120° 4 kt METAR YPJT 172230Z AUTO 12004KT 9999 // FEW042 BKN085 12/11 Q1011
06:00
V
13 °C 10 km+ 3.700 ft 170° 170° 7 kt METAR YPJT 172200Z AUTO 17007KT 9999 -SHRA FEW017 SCT025 BKN037 13/12 Q1011
05:30
M
14 °C 10 km+ 2.100 ft 180° 180° 5 kt METAR YPJT 172130Z AUTO 18005KT 9999 -SHRA FEW010 BKN021 OVC026 14/13 Q1011
05:05
V
14 °C 10 km+ 5.900 ft 130° 130° 4 kt METAR YPJT 172105Z AUTO 13004KT 9999 // FEW009 SCT027 OVC059 14/13 Q1010 RERA
05:00
V
14 °C 10 km+ 3.400 ft 140° 140° 4 kt METAR YPJT 172100Z AUTO 14004KT 9999 // FEW006 SCT012 BKN034 14/13 Q1010 RERA
04:30
M
14 °C 10 km+ 1.200 ft 360° 360° 0 kt METAR YPJT 172030Z AUTO 00000KT 9999 RA SCT008 BKN012 BKN018 14/13 Q1010
04:00
M
14 °C 6 km 1.200 ft 360° 360° 0 kt METAR YPJT 172000Z AUTO 00000KT 6000 RA FEW008 BKN012 OVC018 14/13 Q1010
03:30
M
14 °C 10 km+ 1.000 ft 160° 160° 6 kt METAR YPJT 171930Z AUTO 16006KT 9999 -RA FEW005 BKN010 BKN016 14/13 Q1010 RERA
03:00
M
14 °C 7 km 1.200 ft 170° 170° 4 kt METAR YPJT 171900Z AUTO 17004KT 7000 +DZ SCT006 BKN012 BKN018 14/14 Q1009 RERA
02:54
M
14 °C 6 km 1.200 ft 190° 190° 5 kt METAR YPJT 171854Z AUTO 19005KT 150V210 6000 RA SCT005 BKN012 BKN018 14/14 Q1009
02:34
I
14 °C 5 km 600 ft 200° 200° 6 kt METAR YPJT 171834Z AUTO 20006KT 5000 +DZ BR BKN006 BKN012 OVC020 14/14 Q1009 RERA
02:30
I
15 °C 7 km 600 ft 200° 200° 7 kt METAR YPJT 171830Z AUTO 20007KT 7000 DZ BKN006 BKN010 OVC018 15/14 Q1009 RERA
02:03
M
15 °C 10 km+ 1.700 ft 210° 210° 6 kt METAR YPJT 171803Z AUTO 21006KT 9999 -RA SCT010 BKN017 BKN039 15/14 Q1010 RERA
02:01
M
15 °C 10 km+ 1.900 ft 220° 220° 6 kt METAR YPJT 171801Z AUTO 22006KT 9999 -RA SCT010 BKN019 BKN041 15/14 Q1009 RERA
01:30
I
15 °C 7 km 700 ft 220° 220° 10 kt METAR YPJT 171730Z AUTO 22010KT 7000 RA BKN007 BKN020 OVC033 15/14 Q1010
01:29
M
15 °C 7 km 1.100 ft 220° 220° 10 kt METAR YPJT 171729Z AUTO 22010KT 7000 RA SCT005 BKN011 BKN020 15/14 Q1010
01:10
I
15 °C 4,6 km 700 ft 230° 230° 11 kt METAR YPJT 171710Z AUTO 23011KT 4600 +RA BKN007 BKN020 BKN032 15/14 Q1010
01:05
M
15 °C 5 km 3.000 ft 220° 220° 12 kt METAR YPJT 171705Z AUTO 22012KT 220V290 5000 +RA SCT009 BKN030 BKN066 15/14 Q1010
01:00
M
15 °C 9 km 3.000 ft 280° 280° 8 kt METAR YPJT 171700Z AUTO 28008KT 9000 RA SCT015 BKN030 BKN063 15/14 Q1010
00:30
V
15 °C 8 km 3.100 ft 280° 280° 11 kt METAR YPJT 171630Z AUTO 28011KT 8000 SHRA SCT016 SCT021 BKN031 15/14 Q1010
00:00
V
15 °C 10 km+ 5.000 ft 290° 290° 8 kt METAR YPJT 171600Z AUTO 29008KT 9999 SHRA FEW024 OVC050 15/14 Q1010

17 juillet 2024

Temps Code Temps Temp. Vue Base cloud Vent METAR/SPECI
23:30
V
16 °C 10 km+ 4.800 ft 270° 270° 11 kt METAR YPJT 171530Z AUTO 27011KT 9999 -SHRA FEW020 SCT039 OVC048 16/14 Q1010
23:23
V
16 °C 10 km+ 3.900 ft 260° 260° 11 kt METAR YPJT 171523Z AUTO 26011KT 9999 -SHRA FEW022 SCT030 BKN039 16/14 Q1010
23:10
M
16 °C 5 km 3.000 ft 270° 270° 15 kt METAR YPJT 171510Z AUTO 27015KT 5000 -SHRA FEW015 SCT023 BKN030 16/14 Q1010
23:00
V
16 °C 10 km+ 3.700 ft 280° 280° 9 kt METAR YPJT 171500Z AUTO 28009KT 9999 -SHRA FEW022 SCT029 BKN037 16/15 Q1010 RESHRA
22:30
V
16 °C 10 km+ 3.300 ft 270° 270° 7 kt METAR YPJT 171430Z AUTO 27007KT 9999 -RA FEW022 BKN033 BKN045 16/15 Q1010 RERA
22:07
M
16 °C 8 km 2.600 ft 270° 270° 8 kt METAR YPJT 171407Z AUTO 27008KT 8000 RA FEW007 BKN026 BKN035 16/15 Q1011
22:00
M
16 °C 7 km 2.000 ft 270° 270° 8 kt METAR YPJT 171400Z AUTO 27008KT 7000 RA SCT007 BKN020 BKN028 16/15 Q1011
21:45
M
16 °C 9 km 1.100 ft 260° 260° 8 kt METAR YPJT 171345Z AUTO 26008KT 9000 RA SCT007 BKN011 BKN017 16/15 Q1010
21:37
M
16 °C 6 km 1.300 ft 270° 270° 12 kt METAR YPJT 171337Z AUTO 27012KT 6000 +RA SCT009 BKN013 BKN019 16/15 Q1011
21:30
I
16 °C 4,8 km 1.600 ft 270° 270° 13 kt METAR YPJT 171330Z AUTO 27013KT 4800 +RA FEW009 BKN016 BKN035 16/15 Q1011
21:20
M
17 °C 5 km 3.500 ft 270° 270° 17 kt METAR YPJT 171320Z AUTO 27017KT 5000 RA SCT012 SCT020 BKN035 17/16 Q1011
21:15
M
17 °C 5 km 3.300 ft 310° 310° 21 kt METAR YPJT 171315Z AUTO 31021KT 5000 RA FEW012 SCT020 BKN033 17/16 Q1011
21:04
M
17 °C 5 km 1.200 ft 300° 300° 19 - 29 kt METAR YPJT 171304Z AUTO 30019G29KT 5000 RA BKN012 BKN026 BKN041 17/16 Q1011
20:47
M
17 °C 8 km 1.200 ft 310° 310° 15 kt METAR YPJT 171247Z AUTO 31015KT 8000 RA BKN012 BKN021 BKN035 17/16 Q1011
20:42
M
17 °C 8 km 1.200 ft 310° 310° 15 - 26 kt METAR YPJT 171242Z AUTO 31015G26KT 8000 +RA BKN012 BKN021 OVC032 17/16 Q1011
20:30
I
17 °C 3,3 km 2.500 ft 340° 340° 11 kt METAR YPJT 171230Z AUTO 34011KT 3300 +SHRA SCT016 BKN025 17/16 Q1011
20:26
M
17 °C 5 km 2.100 ft 350° 350° 11 kt METAR YPJT 171226Z AUTO 35011KT 5000 +SHRA BKN021 BKN031 OVC075 17/16 Q1011
20:00
V
18 °C 10 km+ 3.300 ft 350° 350° 15 kt METAR YPJT 171200Z AUTO 35015KT 9999 SHRA SCT025 BKN033 BKN054 18/16 Q1011
19:30
V
19 °C 10 km+ 5.400 ft 360° 360° 13 kt METAR YPJT 171130Z AUTO 36013KT 9999 -SHRA SCT038 BKN054 OVC079 19/15 Q1011
19:00
V
20 °C 10 km+ 8.200 ft 350° 350° 13 kt METAR YPJT 171100Z AUTO 35013KT 9999 // FEW043 SCT055 BKN082 20/14 Q1011
18:30
V
20 °C 10 km+ 11.500 ft 350° 350° 18 kt METAR YPJT 171030Z AUTO 35018KT 9999 -SHRA FEW063 BKN115 OVC125 20/14 Q1012
18:00
V
20 °C 10 km+ - 340° 340° 17 kt METAR YPJT 171000Z AUTO 34017KT 9999 // SCT067 SCT082 20/14 Q1012
17:35
V
20 °C 10 km+ 8.700 ft 340° 340° 17 - 27 kt METAR YPJT 170935Z AUTO 34017G27KT 9999 // FEW048 SCT067 BKN087 20/13 Q1012
17:00
V
21 °C 10 km+ 6.200 ft 340° 340° 15 kt METAR YPJT 170900Z AUTO 34015KT 9999 // FEW045 SCT053 BKN062 21/13 Q1012
16:46
V
21 °C 10 km+ 5.400 ft 340° 340° 17 - 27 kt METAR YPJT 170846Z AUTO 34017G27KT 9999 // SCT047 BKN054 OVC062 21/12 Q1012
16:30
V
21 °C 10 km+ - 340° 340° 13 kt METAR YPJT 170830Z AUTO 34013KT 9999 // SCT055 SCT063 21/13 Q1012
16:00
V
21 °C 10 km+ - 350° 350° 11 kt METAR YPJT 170800Z AUTO 35011KT 9999 // NCD 21/13 Q1011 RF00.0/000.0
15:30
V
20 °C 10 km+ - 350° 350° 12 kt METAR YPJT 170730Z AUTO 35012KT 9999 // NCD 20/12 Q1012 RF00.0/000.0
15:00
V
21 °C 10 km+ - 330° 330° 14 kt METAR YPJT 170700Z AUTO 33014KT 9999 // NCD 21/11 Q1012 RF00.0/000.0
14:30
V
21 °C 10 km+ - 320° 320° 14 kt METAR YPJT 170630Z AUTO 32014KT 9999 // NCD 21/11 Q1012 RF00.0/000.0
14:00
V
22 °C 10 km+ - 340° 340° 14 kt METAR YPJT 170600Z AUTO 34014KT 9999 // SCT032 22/10 Q1012 RF00.0/000.0
Signaler les modifications